Time;durP1;ratioP1;P1;durP2;ratioP2;P2;SDS_P1;SDS_P2;PMS_P1;PMS_P2;Temp;Humidity;BMP_temperature;BMP_pressure;BME280_temperature;BME280_humidity;BME280_pressure;Samples;Min_cycle;Max_cycle;Signal;HPM_P1;HPM_P2
2021/11/15 00:02:21;;;;;;;31.37;13.80;;;4.30;91.20;;;;;;5047987;28;20189;-74
2021/11/15 00:04:48;;;;;;;23.20;11.37;;;4.30;91.90;;;;;;5047492;28;20267;-74
2021/11/15 00:07:14;;;;;;;22.53;12.73;;;4.30;91.80;;;;;;5046530;28;20962;-74
2021/11/15 00:09:42;;;;;;;24.47;12.03;;;4.20;91.70;;;;;;5047049;28;20179;-74
2021/11/15 00:12:09;;;;;;;27.73;12.60;;;4.20;91.60;;;;;;5051201;28;20175;-74
2021/11/15 00:14:35;;;;;;;23.53;12.27;;;4.20;91.80;;;;;;5047916;28;20262;-73
2021/11/15 00:17:02;;;;;;;24.87;12.60;;;4.20;91.90;;;;;;5046978;28;20188;-74
2021/11/15 00:19:28;;;;;;;21.87;10.97;;;4.20;91.90;;;;;;5047577;28;20614;-73
2021/11/15 00:21:54;;;;;;;30.83;12.67;;;4.10;91.80;;;;;;5048660;28;20719;-74
2021/11/15 00:24:19;;;;;;;24.70;11.13;;;4.10;92.00;;;;;;5047705;28;20313;-74
2021/11/15 00:26:45;;;;;;;24.67;12.03;;;4.10;91.80;;;;;;5047573;28;20184;-74
2021/11/15 00:29:11;;;;;;;19.27;11.20;;;4.10;91.80;;;;;;5051187;28;20186;-74
2021/11/15 00:31:37;;;;;;;16.17;9.83;;;4.20;91.90;;;;;;5048207;28;20187;-74
2021/11/15 00:34:03;;;;;;;19.37;10.40;;;4.20;91.90;;;;;;5045178;28;20238;-74
2021/11/15 00:36:29;;;;;;;15.43;9.63;;;4.20;91.80;;;;;;5048718;28;20195;-75
2021/11/15 00:38:54;;;;;;;17.57;10.20;;;4.20;91.70;;;;;;5045125;28;20237;-73
2021/11/15 00:41:20;;;;;;;24.80;12.33;;;4.20;91.80;;;;;;5048179;28;20190;-75
2021/11/15 00:43:46;;;;;;;21.40;9.53;;;4.20;91.80;;;;;;5048614;28;20185;-75
2021/11/15 00:46:12;;;;;;;20.57;10.00;;;4.20;91.90;;;;;;5053315;28;20195;-74
2021/11/15 00:48:37;;;;;;;17.10;9.13;;;4.20;91.60;;;;;;5049057;28;20185;-73
2021/11/15 00:51:03;;;;;;;20.67;11.60;;;4.20;91.50;;;;;;5048425;28;20183;-75
2021/11/15 00:53:30;;;;;;;23.57;10.30;;;4.20;91.80;;;;;;5051640;28;20204;-75
2021/11/15 00:55:56;;;;;;;20.87;10.90;;;4.20;91.70;;;;;;5050818;28;20176;-74
2021/11/15 00:58:22;;;;;;;20.17;9.80;;;4.20;91.60;;;;;;5046258;28;20715;-73
2021/11/15 01:00:48;;;;;;;24.37;10.80;;;4.20;91.50;;;;;;5046905;28;20271;-74
2021/11/15 01:03:14;;;;;;;18.30;10.27;;;4.20;91.40;;;;;;5047352;28;20183;-74
2021/11/15 01:05:42;;;;;;;19.27;9.47;;;4.10;91.20;;;;;;5049083;28;20187;-74
2021/11/15 01:08:08;;;;;;;15.63;9.07;;;4.10;91.20;;;;;;5045486;28;20184;-73
2021/11/15 01:10:35;;;;;;;11.20;8.40;;;4.10;91.80;;;;;;5047777;28;20193;-73
2021/11/15 01:13:01;;;;;;;19.70;10.57;;;4.00;92.10;;;;;;5047013;28;20576;-73
2021/11/15 01:15:29;;;;;;;21.33;9.80;;;4.00;92.10;;;;;;5045548;28;20220;-73
2021/11/15 01:17:56;;;;;;;16.37;9.00;;;3.90;92.10;;;;;;5046319;28;20176;-73
2021/11/15 01:20:26;;;;;;;25.20;11.10;;;3.90;92.10;;;;;;5047370;28;20268;-74
2021/11/15 01:22:52;;;;;;;20.53;9.90;;;3.90;92.00;;;;;;5049727;28;20743;-74
2021/11/15 01:25:18;;;;;;;15.17;9.90;;;3.80;92.10;;;;;;5048597;28;20183;-72
2021/11/15 01:27:44;;;;;;;22.57;9.60;;;3.80;92.20;;;;;;5051198;28;20184;-72
2021/11/15 01:30:12;;;;;;;19.50;10.00;;;3.70;92.20;;;;;;5051054;28;20501;-75
2021/11/15 01:32:40;;;;;;;13.20;8.87;;;3.70;92.20;;;;;;5052518;28;20590;-75
2021/11/15 01:35:06;;;;;;;24.27;10.77;;;3.70;92.80;;;;;;5054441;28;20227;-75
2021/11/15 01:37:34;;;;;;;17.07;9.77;;;3.70;92.90;;;;;;5053960;28;20309;-75
2021/11/15 01:40:00;;;;;;;19.57;10.10;;;3.60;92.80;;;;;;5052507;28;20203;-74
2021/11/15 01:42:26;;;;;;;14.53;8.67;;;3.60;92.80;;;;;;5053037;28;20210;-74
2021/11/15 01:44:53;;;;;;;17.97;8.77;;;3.60;92.60;;;;;;5049812;28;20270;-72
2021/11/15 01:47:19;;;;;;;17.67;9.70;;;3.60;92.80;;;;;;5052140;28;20176;-75
2021/11/15 01:49:44;;;;;;;16.07;8.13;;;3.60;92.70;;;;;;5051196;28;20183;-74
2021/11/15 01:52:10;;;;;;;19.40;9.47;;;3.60;93.10;;;;;;5052339;28;20179;-74
2021/11/15 01:54:36;;;;;;;24.03;10.23;;;3.60;93.70;;;;;;5051707;28;20215;-74
2021/11/15 01:57:03;;;;;;;15.37;8.30;;;3.70;93.70;;;;;;5050731;28;20253;-75
2021/11/15 01:59:29;;;;;;;15.47;8.77;;;3.70;93.80;;;;;;5044622;28;20183;-74
2021/11/15 02:01:54;;;;;;;18.63;8.43;;;3.70;93.80;;;;;;5045347;28;20183;-73
2021/11/15 02:04:20;;;;;;;14.57;8.23;;;3.80;93.80;;;;;;5046120;28;20237;-73
2021/11/15 02:06:46;;;;;;;22.13;10.20;;;3.80;93.60;;;;;;5045954;28;20179;-74
2021/11/15 02:09:12;;;;;;;18.80;9.03;;;3.90;93.50;;;;;;5046457;28;20199;-73
2021/11/15 02:11:39;;;;;;;13.93;8.20;;;3.90;93.20;;;;;;5046540;28;20180;-74
2021/11/15 02:14:05;;;;;;;23.90;10.27;;;4.00;93.20;;;;;;5047071;28;20246;-73
2021/11/15 02:16:31;;;;;;;18.43;9.30;;;4.10;93.00;;;;;;5044059;28;20215;-73
2021/11/15 02:18:58;;;;;;;20.13;9.13;;;4.10;92.90;;;;;;5046135;28;20179;-73
2021/11/15 02:21:24;;;;;;;19.23;9.57;;;4.20;92.80;;;;;;5046019;28;20183;-73
2021/11/15 02:23:51;;;;;;;17.20;9.27;;;4.20;92.60;;;;;;5043437;28;20180;-74
2021/11/15 02:26:21;;;;;;;16.47;8.87;;;4.30;92.70;;;;;;5045735;28;20633;-73
2021/11/15 02:28:49;;;;;;;11.27;7.57;;;4.40;92.40;;;;;;5046331;28;20178;-73
2021/11/15 02:31:23;;;;;;;17.77;8.83;;;4.40;92.40;;;;;;5045084;28;20188;-74
2021/11/15 02:33:53;;;;;;;18.37;8.53;;;4.40;92.50;;;;;;5042508;28;20211;-74
2021/11/15 02:36:20;;;;;;;18.97;10.50;;;4.50;92.60;;;;;;5046661;28;20195;-75
2021/11/15 02:38:48;;;;;;;20.33;9.90;;;4.50;92.60;;;;;;5047858;28;20181;-75
2021/11/15 02:41:17;;;;;;;18.80;9.57;;;4.50;92.60;;;;;;5045748;28;20211;-74
2021/11/15 02:43:44;;;;;;;21.70;9.60;;;4.60;92.70;;;;;;5045405;28;20785;-74
2021/11/15 02:46:09;;;;;;;23.07;10.47;;;4.60;92.80;;;;;;5044918;28;20271;-74
2021/11/15 02:48:35;;;;;;;16.73;8.90;;;4.60;92.80;;;;;;5044860;28;20337;-74
2021/11/15 02:51:01;;;;;;;19.90;10.63;;;4.60;92.60;;;;;;5046778;28;20241;-74
2021/11/15 02:53:27;;;;;;;17.87;8.47;;;4.60;92.70;;;;;;5046963;28;20234;-74
2021/11/15 02:55:53;;;;;;;16.43;8.97;;;4.70;93.00;;;;;;5046498;28;20180;-74
2021/11/15 02:58:19;;;;;;;18.90;9.17;;;4.70;92.90;;;;;;5046761;28;20298;-74
2021/11/15 03:00:51;;;;;;;20.10;9.27;;;4.70;92.90;;;;;;5045791;28;20251;-74
2021/11/15 03:03:17;;;;;;;18.10;9.77;;;4.70;92.60;;;;;;5046643;28;20187;-74
2021/11/15 03:05:46;;;;;;;22.00;10.87;;;4.80;92.60;;;;;;5047096;28;20202;-74
2021/11/15 03:08:13;;;;;;;18.87;9.73;;;4.80;93.00;;;;;;5046175;28;20266;-74
2021/11/15 03:10:41;;;;;;;21.87;8.13;;;4.80;93.00;;;;;;5047177;28;20271;-74
2021/11/15 03:13:10;;;;;;;18.30;9.83;;;4.80;93.10;;;;;;5048220;28;20679;-73
2021/11/15 03:15:45;;;;;;;19.37;8.07;;;4.80;92.90;;;;;;5046932;28;20614;-74
2021/11/15 03:18:14;;;;;;;16.00;9.60;;;4.90;92.60;;;;;;5049531;28;20187;-74
2021/11/15 03:20:51;;;;;;;17.73;9.90;;;4.90;92.70;;;;;;5049658;28;20262;-74
2021/11/15 03:23:20;;;;;;;21.87;10.60;;;4.90;92.60;;;;;;5047784;28;20277;-74
2021/11/15 03:25:47;;;;;;;16.57;8.57;;;4.90;92.90;;;;;;5050230;28;20179;-74
2021/11/15 03:28:15;;;;;;;16.47;9.13;;;4.90;92.70;;;;;;5048902;28;20187;-74
2021/11/15 03:30:43;;;;;;;23.53;10.37;;;5.00;92.70;;;;;;5046164;28;20183;-74
2021/11/15 03:33:10;;;;;;;12.70;8.73;;;4.90;92.70;;;;;;5049750;28;20174;-74
2021/11/15 03:35:36;;;;;;;16.40;9.10;;;5.00;92.50;;;;;;5049342;28;20225;-74
2021/11/15 03:38:02;;;;;;;18.27;9.27;;;4.90;92.40;;;;;;5048299;28;20176;-74
2021/11/15 03:40:28;;;;;;;17.00;8.93;;;4.90;93.00;;;;;;5049393;28;20727;-75
2021/11/15 03:42:57;;;;;;;20.33;9.37;;;4.90;92.60;;;;;;5050670;28;20790;-74
2021/11/15 03:45:24;;;;;;;17.20;9.33;;;4.80;92.40;;;;;;5049980;28;20579;-75
2021/11/15 03:47:50;;;;;;;23.57;9.97;;;4.80;92.50;;;;;;5049709;28;20180;-75
2021/11/15 03:50:16;;;;;;;17.03;9.23;;;4.80;92.30;;;;;;5050285;28;20175;-74
2021/11/15 03:52:44;;;;;;;15.90;9.07;;;4.70;92.10;;;;;;5050195;28;20719;-74
2021/11/15 03:55:12;;;;;;;17.57;9.37;;;4.70;92.50;;;;;;5048783;28;20219;-75
2021/11/15 03:57:38;;;;;;;17.50;8.83;;;4.70;92.60;;;;;;5050500;28;20206;-74
2021/11/15 04:00:07;;;;;;;13.80;8.63;;;4.60;92.50;;;;;;5047684;28;20215;-75
2021/11/15 04:02:34;;;;;;;12.20;7.50;;;4.60;92.60;;;;;;5048657;28;20271;-74
2021/11/15 04:05:04;;;;;;;15.67;8.77;;;4.60;92.60;;;;;;5048100;28;20187;-74
2021/11/15 04:07:35;;;;;;;20.73;8.43;;;4.60;92.60;;;;;;5047679;28;20212;-74
2021/11/15 04:10:21;;;;;;;17.83;8.37;;;4.60;92.60;;;;;;5048459;28;20194;-74
2021/11/15 04:12:46;;;;;;;19.40;9.10;;;4.50;92.50;;;;;;5048994;28;20187;-74
2021/11/15 04:15:13;;;;;;;20.13;9.97;;;4.50;92.70;;;;;;5049978;28;20223;-75
2021/11/15 04:17:41;;;;;;;18.80;8.87;;;4.60;92.50;;;;;;5050444;28;20182;-74
2021/11/15 04:20:08;;;;;;;16.40;7.80;;;4.60;92.40;;;;;;5049330;28;20649;-74
2021/11/15 04:22:35;;;;;;;20.00;8.37;;;4.60;92.40;;;;;;5047676;28;20184;-74
2021/11/15 04:25:03;;;;;;;12.07;7.33;;;4.60;92.10;;;;;;5049737;28;20267;-74
2021/11/15 04:27:29;;;;;;;11.20;7.67;;;4.60;92.10;;;;;;5050454;28;20184;-74
2021/11/15 04:29:55;;;;;;;16.63;7.77;;;4.60;91.70;;;;;;5049972;28;20245;-74
2021/11/15 04:32:20;;;;;;;16.90;8.80;;;4.60;91.50;;;;;;5046807;28;20191;-74
2021/11/15 04:34:46;;;;;;;18.83;8.80;;;4.50;91.80;;;;;;5047494;28;20262;-74
2021/11/15 04:37:11;;;;;;;17.03;9.27;;;4.50;91.70;;;;;;5046687;28;20188;-74
2021/11/15 04:39:37;;;;;;;16.33;7.70;;;4.50;91.80;;;;;;5047653;28;20195;-74
2021/11/15 04:42:04;;;;;;;18.37;8.73;;;4.40;91.90;;;;;;5046724;28;20985;-74
2021/11/15 04:44:30;;;;;;;18.43;9.20;;;4.40;91.80;;;;;;5046788;28;20587;-74
2021/11/15 04:46:57;;;;;;;19.33;8.43;;;4.30;91.90;;;;;;5048314;28;20585;-74
2021/11/15 04:49:23;;;;;;;16.00;8.37;;;4.20;91.90;;;;;;5049517;28;20171;-74
2021/11/15 04:51:48;;;;;;;12.93;8.30;;;4.20;92.20;;;;;;5046626;28;20190;-74
2021/11/15 04:54:15;;;;;;;18.23;8.07;;;4.20;92.20;;;;;;5046427;28;20218;-74
2021/11/15 04:56:42;;;;;;;11.83;7.43;;;4.10;92.30;;;;;;5047492;28;20703;-74
2021/11/15 04:59:08;;;;;;;17.93;8.70;;;4.10;92.20;;;;;;5044129;28;20195;-75
2021/11/15 05:01:34;;;;;;;12.10;7.37;;;4.00;92.00;;;;;;5048628;28;20187;-74
2021/11/15 05:04:00;;;;;;;20.03;9.03;;;3.90;92.20;;;;;;5044775;28;20221;-74
2021/11/15 05:06:26;;;;;;;17.67;7.77;;;3.80;92.50;;;;;;5046227;28;20187;-74
2021/11/15 05:08:51;;;;;;;12.07;7.27;;;3.80;92.50;;;;;;5046745;28;20187;-74
2021/11/15 05:11:17;;;;;;;16.03;8.33;;;3.80;92.70;;;;;;5047637;28;20254;-74
2021/11/15 05:13:43;;;;;;;14.27;6.77;;;3.70;92.60;;;;;;5046746;28;20350;-74
2021/11/15 05:16:09;;;;;;;10.50;6.00;;;3.70;92.60;;;;;;5045962;28;20649;-74
2021/11/15 05:18:34;;;;;;;17.03;7.80;;;3.70;92.70;;;;;;5048583;28;20235;-74
2021/11/15 05:21:00;;;;;;;12.97;6.80;;;3.70;92.50;;;;;;5046903;28;20183;-74
2021/11/15 05:23:27;;;;;;;9.33;6.37;;;3.60;92.50;;;;;;5047394;28;20187;-73
2021/11/15 05:25:53;;;;;;;13.37;6.70;;;3.60;92.70;;;;;;5047453;28;20628;-74
2021/11/15 05:28:19;;;;;;;11.00;7.87;;;3.60;92.70;;;;;;5044365;28;20214;-74
2021/11/15 05:30:45;;;;;;;13.63;7.73;;;3.60;92.80;;;;;;5046211;28;20688;-77
2021/11/15 05:33:11;;;;;;;7.03;5.93;;;3.60;92.70;;;;;;5047862;28;20171;-79
2021/11/15 05:35:37;;;;;;;13.63;7.90;;;3.60;92.70;;;;;;5050906;28;20953;-79
2021/11/15 05:38:04;;;;;;;9.37;5.97;;;3.60;92.80;;;;;;5048963;28;20176;-79
2021/11/15 05:40:30;;;;;;;9.17;5.83;;;;;;;;;;5051660;28;20179;-77
2021/11/15 05:42:56;;;;;;;11.10;6.40;;;3.60;93.10;;;;;;5056905;28;20184;-77
2021/11/15 05:45:26;;;;;;;8.50;6.07;;;3.60;93.30;;;;;;5056833;28;20232;-78
2021/11/15 05:47:53;;;;;;;8.97;6.10;;;3.60;93.20;;;;;;5062456;28;20227;-77
2021/11/15 05:50:20;;;;;;;12.37;5.53;;;3.60;93.60;;;;;;5058124;28;20184;-78
2021/11/15 05:52:47;;;;;;;9.47;6.03;;;3.60;93.60;;;;;;5046449;28;20180;-78
2021/11/15 05:55:16;;;;;;;13.67;7.07;;;3.60;93.60;;;;;;5040313;28;20788;-78
2021/11/15 05:57:43;;;;;;;11.80;6.57;;;3.60;93.90;;;;;;5047596;28;20176;-77
2021/11/15 06:00:13;;;;;;;10.47;7.07;;;3.60;93.80;;;;;;5046063;28;20171;-77
2021/11/15 06:02:39;;;;;;;10.67;6.57;;;3.60;93.90;;;;;;5042367;28;20191;-77
2021/11/15 06:05:07;;;;;;;15.40;8.17;;;3.70;94.30;;;;;;5044843;28;20183;-77
2021/11/15 06:07:33;;;;;;;16.73;8.67;;;3.70;94.30;;;;;;5045667;28;20176;-77
2021/11/15 06:09:59;;;;;;;12.63;7.83;;;3.80;94.70;;;;;;5044500;28;20873;-77
2021/11/15 06:12:25;;;;;;;11.07;7.33;;;3.80;94.70;;;;;;5046157;28;20218;-77
2021/11/15 06:14:51;;;;;;;16.63;7.77;;;3.80;94.70;;;;;;5046651;28;20219;-77
2021/11/15 06:17:16;;;;;;;14.73;8.30;;;3.90;94.90;;;;;;5047199;28;20176;-78
2021/11/15 06:19:43;;;;;;;23.77;8.80;;;4.00;95.00;;;;;;5044728;28;20191;-78
2021/11/15 06:22:08;;;;;;;13.87;8.20;;;4.10;95.10;;;;;;5042317;28;20218;-77
2021/11/15 06:24:34;;;;;;;19.63;8.93;;;4.20;95.30;;;;;;5044095;28;20213;-77
2021/11/15 06:27:01;;;;;;;13.63;7.97;;;4.40;95.50;;;;;;5048491;28;20179;-77
2021/11/15 06:29:27;;;;;;;18.07;9.20;;;4.90;95.40;;;;;;5043083;28;20191;-77
2021/11/15 06:31:53;;;;;;;15.93;9.00;;;4.90;95.40;;;;;;5047700;28;20186;-77
2021/11/15 06:34:19;;;;;;;22.27;9.37;;;5.20;95.70;;;;;;5049472;28;20215;-78
2021/11/15 06:36:44;;;;;;;22.67;10.30;;;5.60;95.70;;;;;;5045710;28;20180;-78
2021/11/15 06:39:10;;;;;;;21.10;10.93;;;6.10;95.50;;;;;;5056652;28;20269;-77
2021/11/15 06:41:36;;;;;;;22.77;10.27;;;6.60;95.10;;;;;;5046629;28;20183;-76
2021/11/15 06:44:03;;;;;;;18.37;9.83;;;7.70;93.00;;;;;;5046917;28;20282;-76
2021/11/15 06:46:29;;;;;;;16.73;9.37;;;7.70;92.90;;;;;;5060095;28;20187;-76
2021/11/15 06:48:55;;;;;;;16.43;9.53;;;8.30;91.10;;;;;;5060585;28;20257;-77
2021/11/15 06:51:21;;;;;;;18.23;9.50;;;8.80;90.30;;;;;;5068235;28;20187;-77
2021/11/15 06:53:47;;;;;;;23.50;10.73;;;9.40;89.10;;;;;;5071752;28;20229;-77
2021/11/15 06:56:12;;;;;;;19.90;10.23;;;10.00;87.90;;;;;;5073449;28;20176;-77
2021/11/15 06:58:42;;;;;;;23.10;11.23;;;10.50;84.60;;;;;;5070713;28;20184;-77
2021/11/15 07:01:08;;;;;;;16.97;10.73;;;10.90;83.90;;;;;;5066493;28;20203;-78
2021/11/15 07:03:35;;;;;;;18.33;11.37;;;11.30;83.60;;;;;;5065786;28;20183;-77
2021/11/15 07:06:01;;;;;;;21.07;12.40;;;11.80;82.70;;;;;;5066600;28;20179;-77
2021/11/15 07:08:27;;;;;;;16.27;11.05;;;12.30;80.60;;;;;;5067539;28;20184;-77
2021/11/15 07:10:54;;;;;;;27.08;12.88;;;12.70;79.20;;;;;;5066864;28;20179;-77
2021/11/15 07:13:20;;;;;;;22.42;12.55;;;13.20;78.00;;;;;;5068066;28;20199;-77
2021/11/15 07:15:48;;;;;;;21.45;13.82;;;13.60;76.00;;;;;;5065332;28;20203;-77
2021/11/15 07:18:15;;;;;;;27.70;14.27;;;13.90;74.80;;;;;;5068087;28;20203;-77
2021/11/15 07:20:40;;;;;;;20.13;12.52;;;14.30;74.20;;;;;;5069357;28;20184;-78
2021/11/15 07:23:07;;;;;;;20.27;12.35;;;14.50;73.40;;;;;;5069177;28;20213;-77
2021/11/15 07:25:33;;;;;;;17.65;11.98;;;14.90;72.50;;;;;;5058909;28;20190;-77
2021/11/15 07:27:59;;;;;;;18.10;11.65;;;15.30;71.80;;;;;;5059711;28;20172;-78
2021/11/15 07:30:25;;;;;;;19.40;12.55;;;15.60;70.40;;;;;;5056630;28;20187;-76
2021/11/15 07:32:52;;;;;;;21.23;12.75;;;16.00;69.90;;;;;;5067008;28;20719;-77
2021/11/15 07:35:19;;;;;;;28.85;11.80;;;16.20;68.70;;;;;;5065769;28;20208;-77
2021/11/15 07:37:45;;;;;;;20.63;13.07;;;16.60;68.10;;;;;;5068238;28;20171;-77
2021/11/15 07:40:14;;;;;;;22.45;12.68;;;16.90;67.30;;;;;;5066298;28;20201;-77
2021/11/15 07:42:39;;;;;;;20.38;12.25;;;17.10;66.40;;;;;;5065187;28;20182;-77
2021/11/15 07:45:06;;;;;;;20.92;11.45;;;17.40;66.30;;;;;;5066261;28;20184;-77
2021/11/15 07:47:33;;;;;;;18.38;12.65;;;17.60;66.00;;;;;;5065012;28;20195;-77
2021/11/15 07:49:59;;;;;;;24.27;12.65;;;17.50;65.00;;;;;;5063428;28;20581;-77
2021/11/15 07:52:25;;;;;;;20.63;12.13;;;17.40;65.10;;;;;;5062736;28;20195;-77
2021/11/15 07:54:51;;;;;;;20.15;11.23;;;17.50;65.20;;;;;;5061263;28;20223;-77
2021/11/15 07:57:17;;;;;;;18.38;11.93;;;17.50;64.80;;;;;;5062216;28;20176;-76
2021/11/15 07:59:44;;;;;;;19.00;12.48;;;17.70;64.90;;;;;;5049385;28;20235;-76
2021/11/15 08:02:12;;;;;;;18.15;11.82;;;18.00;65.20;;;;;;5049862;28;20547;-76
2021/11/15 08:04:38;;;;;;;20.63;12.88;;;18.40;65.00;;;;;;5058433;28;20184;-77
2021/11/15 08:07:04;;;;;;;20.48;12.70;;;18.70;64.40;;;;;;5073676;28;20195;-77
2021/11/15 08:09:31;;;;;;;20.67;12.13;;;19.10;63.50;;;;;;5055337;28;20195;-77
2021/11/15 08:12:02;;;;;;;17.85;11.80;;;19.40;63.20;;;;;;5056062;28;20632;-78
2021/11/15 08:14:29;;;;;;;23.48;12.60;;;19.80;62.60;;;;;;5055798;28;20200;-75
2021/11/15 08:16:55;;;;;;;22.65;12.63;;;20.30;60.50;;;;;;5050563;28;20188;-77
2021/11/15 08:19:20;;;;;;;22.08;13.13;;;20.30;60.70;;;;;;5059407;28;20269;-78
2021/11/15 08:21:48;;;;;;;19.48;12.82;;;20.40;60.70;;;;;;5062245;28;20188;-77
2021/11/15 08:24:28;;;;;;;21.98;12.77;;;20.50;60.00;;;;;;5060103;28;20184;-77
2021/11/15 08:26:57;;;;;;;21.77;12.52;;;20.80;60.30;;;;;;5059971;28;20175;-78
2021/11/15 08:29:27;;;;;;;19.60;12.23;;;21.00;59.10;;;;;;5075293;28;20263;-77
2021/11/15 08:31:58;;;;;;;22.42;13.48;;;21.10;59.00;;;;;;5060780;28;20813;-77
2021/11/15 08:34:25;;;;;;;18.20;11.75;;;21.10;58.50;;;;;;5057419;28;20211;-77
2021/11/15 08:36:51;;;;;;;17.92;12.45;;;21.10;58.90;;;;;;5058374;28;20263;-77
2021/11/15 08:39:20;;;;;;;17.55;12.27;;;21.30;58.50;;;;;;5061036;28;20188;-77
2021/11/15 08:41:51;;;;;;;19.52;11.80;;;21.20;57.80;;;;;;5055374;28;20334;-76
2021/11/15 08:44:18;;;;;;;17.25;12.60;;;21.30;58.20;;;;;;5050219;28;20811;-76
2021/11/15 08:46:47;;;;;;;21.05;13.27;;;21.40;58.10;;;;;;5046728;28;20306;-78
2021/11/15 08:49:14;;;;;;;24.67;13.07;;;21.60;58.00;;;;;;5048071;28;20329;-77
2021/11/15 08:51:42;;;;;;;18.95;12.38;;;21.80;57.20;;;;;;5053585;28;20918;-75
2021/11/15 08:54:14;;;;;;;17.98;12.45;;;21.80;57.40;;;;;;5046158;28;20218;-75
2021/11/15 08:56:40;;;;;;;18.80;12.98;;;21.70;57.20;;;;;;5043289;28;20191;-75
2021/11/15 08:59:05;;;;;;;19.35;13.63;;;21.50;56.80;;;;;;5047296;28;20971;-76
2021/11/15 09:01:31;;;;;;;19.48;12.70;;;21.20;57.80;;;;;;5047855;28;20180;-76
2021/11/15 09:03:57;;;;;;;20.40;13.02;;;21.20;58.20;;;;;;5053158;28;20189;-78
2021/11/15 09:06:29;;;;;;;18.95;13.23;;;21.30;57.90;;;;;;5047570;28;20183;-77
2021/11/15 09:08:55;;;;;;;19.10;13.57;;;21.30;57.80;;;;;;5048223;28;20180;-75
2021/11/15 09:11:20;;;;;;;20.88;13.88;;;21.40;57.60;;;;;;5045842;28;20957;-76
2021/11/15 09:13:46;;;;;;;20.05;13.70;;;21.20;57.90;;;;;;5044056;28;20219;-76
2021/11/15 09:16:15;;;;;;;19.67;12.88;;;20.90;58.50;;;;;;5045266;28;20256;-75
2021/11/15 09:18:44;;;;;;;21.23;12.85;;;20.30;58.50;;;;;;5044537;28;20637;-76
2021/11/15 09:21:13;;;;;;;17.40;11.43;;;20.20;58.70;;;;;;5045697;28;20654;-76
2021/11/15 09:23:42;;;;;;;18.00;12.05;;;19.40;59.60;;;;;;5045227;28;20180;-76
2021/11/15 09:26:10;;;;;;;15.88;11.50;;;18.60;61.30;;;;;;5045035;28;20253;-76
2021/11/15 09:28:36;;;;;;;13.05;10.80;;;18.60;61.40;;;;;;5045546;28;20207;-76
2021/11/15 09:31:03;;;;;;;17.15;11.20;;;17.70;62.60;;;;;;5050934;28;20246;-77
2021/11/15 09:33:28;;;;;;;13.70;9.63;;;17.40;63.50;;;;;;5046221;28;21017;-77
2021/11/15 09:35:55;;;;;;;14.68;9.43;;;17.00;63.90;;;;;;5045850;28;20188;-76
2021/11/15 09:38:23;;;;;;;13.52;9.93;;;16.60;64.70;;;;;;5044959;28;20195;-76
2021/11/15 09:40:56;;;;;;;10.30;8.10;;;16.40;65.30;;;;;;5045597;28;20192;-75
2021/11/15 09:43:34;;;;;;;10.52;8.63;;;16.10;65.40;;;;;;5044387;28;20193;-76
2021/11/15 09:46:06;;;;;;;12.13;7.72;;;15.50;66.30;;;;;;5044978;28;20179;-76
2021/11/15 09:48:33;;;;;;;7.97;7.18;;;15.40;66.50;;;;;;5042524;28;20184;-77
2021/11/15 09:51:00;;;;;;;8.00;6.28;;;14.80;65.70;;;;;;5042605;28;20211;-76
2021/11/15 09:53:30;;;;;;;9.27;6.63;;;14.30;66.60;;;;;;5041834;28;20182;-78
2021/11/15 09:55:57;;;;;;;8.65;5.97;;;13.90;67.70;;;;;;5045115;28;20184;-77
2021/11/15 09:58:23;;;;;;;6.45;5.78;;;13.60;68.00;;;;;;5044977;28;20175;-76
2021/11/15 10:00:50;;;;;;;7.15;6.32;;;13.50;68.70;;;;;;5046140;28;20191;-77
2021/11/15 10:03:17;;;;;;;6.40;5.78;;;13.50;69.30;;;;;;5047159;28;20187;-78
2021/11/15 10:05:47;;;;;;;6.40;5.90;;;13.60;68.70;;;;;;5050909;28;20275;-78
2021/11/15 10:08:14;;;;;;;7.35;6.40;;;13.70;68.10;;;;;;5046584;28;20187;-76
2021/11/15 10:10:57;;;;;;;7.30;6.07;;;13.90;68.30;;;;;;5046907;28;20198;-76
2021/11/15 10:13:30;;;;;;;6.75;6.03;;;14.20;68.00;;;;;;5045929;28;20727;-76
2021/11/15 10:16:01;;;;;;;6.40;5.85;;;14.20;67.20;;;;;;5044968;28;20194;-76
2021/11/15 10:18:50;;;;;;;6.28;5.65;;;14.00;67.30;;;;;;5044509;28;20653;-76
2021/11/15 10:21:34;;;;;;;8.13;5.75;;;14.00;67.30;;;;;;5022755;28;20525;-75
2021/11/15 10:24:10;;;;;;;5.25;4.85;;;14.00;67.70;;;;;;5021656;28;20188;-77
2021/11/15 10:26:46;;;;;;;6.78;4.78;;;14.20;67.40;;;;;;5006168;28;20288;-77
2021/11/15 10:29:35;;;;;;;7.35;4.95;;;14.40;66.50;;;;;;5024531;28;20207;-76
2021/11/15 10:32:11;;;;;;;6.20;5.57;;;14.60;66.10;;;;;;5024226;28;20200;-76
2021/11/15 10:34:57;;;;;;;10.45;5.68;;;14.90;66.00;;;;;;5021986;28;20590;-75
2021/11/15 10:37:44;;;;;;;8.13;5.38;;;15.00;66.10;;;;;;5007032;28;20192;-75
2021/11/15 10:40:24;;;;;;;6.00;5.05;;;15.20;65.30;;;;;;5040565;28;20188;-75
2021/11/15 10:42:51;;;;;;;6.10;5.20;;;15.30;64.70;;;;;;5023136;28;20701;-75
2021/11/15 10:45:25;;;;;;;5.50;5.07;;;15.10;64.40;;;;;;5022202;28;22047;-75
2021/11/15 10:47:54;;;;;;;6.82;6.18;;;14.80;65.00;;;;;;5021957;28;20258;-77
2021/11/15 10:53:13;;;;;;;6.82;5.70;;;14.90;65.60;;;;;;5025826;28;20269;-77
2021/11/15 10:55:47;;;;;;;5.72;5.28;;;15.40;65.20;;;;;;5024928;28;20220;-77
2021/11/15 10:58:21;;;;;;;6.93;5.15;;;15.90;64.10;;;;;;5029758;28;20196;-77
2021/11/15 11:00:52;;;;;;;6.60;5.97;;;16.50;63.30;;;;;;5043884;28;20191;-77
2021/11/15 11:03:22;;;;;;;6.97;5.95;;;16.70;62.20;;;;;;5041731;28;20684;-77
2021/11/15 11:05:51;;;;;;;9.32;6.47;;;16.70;61.70;;;;;;5042653;28;20179;-77
2021/11/15 11:08:25;;;;;;;6.72;6.03;;;16.80;62.20;;;;;;5041552;28;20670;-77
2021/11/15 11:11:12;;;;;;;6.88;6.18;;;17.10;61.50;;;;;;5046264;28;20316;-76
2021/11/15 11:13:53;;;;;;;5.53;5.03;;;17.60;61.00;;;;;;5048586;28;20186;-77
2021/11/15 11:16:34;;;;;;;6.03;5.50;;;18.00;60.50;;;;;;5046947;28;20174;-77
2021/11/15 11:22:22;;;;;;;7.13;5.72;;;18.60;59.20;;;;;;5042975;28;20210;-77
2021/11/15 11:27:32;;;;;;;9.82;5.93;;;18.30;59.20;;;;;;5044406;28;20172;-77
2021/11/15 11:29:58;;;;;;;5.65;5.00;;;18.40;58.80;;;;;;5043952;28;20206;-78
2021/11/15 11:32:26;;;;;;;6.25;5.75;;;18.70;59.10;;;;;;5048152;28;20198;-77
2021/11/15 11:34:56;;;;;;;6.53;5.93;;;19.00;58.40;;;;;;5045151;28;20308;-77
2021/11/15 11:37:25;;;;;;;6.68;6.07;;;19.30;58.00;;;;;;5045094;28;20219;-77
2021/11/15 11:39:51;;;;;;;6.95;6.25;;;19.60;57.60;;;;;;5047201;28;20340;-77
2021/11/15 11:42:18;;;;;;;6.65;5.65;;;19.70;56.90;;;;;;5046325;28;20269;-77
2021/11/15 11:44:45;;;;;;;6.60;5.97;;;19.60;57.00;;;;;;5045931;28;20187;-77
2021/11/15 11:47:14;;;;;;;6.82;5.85;;;19.40;56.50;;;;;;5046547;28;20642;-78
2021/11/15 11:49:42;;;;;;;6.22;5.50;;;19.20;56.80;;;;;;5047863;28;20977;-77
2021/11/15 11:52:11;;;;;;;9.48;6.13;;;18.90;57.80;;;;;;5046849;28;20187;-77
2021/11/15 11:54:39;;;;;;;6.18;5.60;;;19.00;57.90;;;;;;5044832;28;20288;-77
2021/11/15 11:57:14;;;;;;;7.72;6.03;;;19.20;58.00;;;;;;5045419;28;20277;-76
2021/11/15 12:00:04;;;;;;;6.10;5.38;;;19.50;57.20;;;;;;5045037;28;20190;-77
2021/11/15 12:02:31;;;;;;;6.50;5.90;;;19.50;56.30;;;;;;5045603;28;20215;-77
2021/11/15 12:05:04;;;;;;;6.95;6.15;;;19.70;56.60;;;;;;5046279;28;20187;-78
2021/11/15 12:07:33;;;;;;;6.30;5.78;;;19.80;56.00;;;;;;5045161;28;20664;-77
2021/11/15 12:10:15;;;;;;;5.63;5.22;;;19.40;56.50;;;;;;5044881;28;20180;-77
2021/11/15 12:12:53;;;;;;;7.82;6.57;;;19.10;56.60;;;;;;5044218;28;20406;-77
2021/11/15 12:15:41;;;;;;;8.15;5.60;;;18.80;57.80;;;;;;5047308;28;20584;-77
2021/11/15 12:18:12;;;;;;;8.90;6.53;;;18.80;57.50;;;;;;5046076;28;20248;-76
2021/11/15 12:21:04;;;;;;;7.47;6.63;;;17.90;58.60;;;;;;5047142;28;21030;-76
2021/11/15 12:23:40;;;;;;;6.53;5.82;;;17.40;60.40;;;;;;5043960;28;20195;-77
2021/11/15 12:26:11;;;;;;;7.22;6.53;;;17.40;60.90;;;;;;5043044;28;20203;-77
2021/11/15 12:28:40;;;;;;;7.72;6.90;;;17.40;61.10;;;;;;5043622;28;20256;-76
2021/11/15 12:31:11;;;;;;;8.27;6.93;;;17.20;61.20;;;;;;5042509;28;20198;-74
2021/11/15 12:33:39;;;;;;;9.50;6.63;;;17.00;61.60;;;;;;5041767;28;20183;-73
2021/11/15 12:36:10;;;;;;;7.78;6.60;;;16.80;62.50;;;;;;5042570;28;20199;-75
2021/11/15 12:38:50;;;;;;;9.75;6.88;;;16.40;63.40;;;;;;5042631;28;20553;-74
2021/11/15 12:41:19;;;;;;;12.95;7.25;;;15.90;64.20;;;;;;5042465;28;20195;-74
2021/11/15 12:44:23;;;;;;;10.13;7.50;;;15.60;65.00;;;;;;5039365;28;20207;-74
2021/11/15 12:46:49;;;;;;;8.68;7.18;;;15.00;65.60;;;;;;4989530;28;20205;-76
2021/11/15 12:49:18;;;;;;;7.10;6.25;;;14.70;66.50;;;;;;4982286;28;20190;-76
2021/11/15 12:54:49;;;;;;;7.03;6.28;;;14.30;67.20;;;;;;4943698;28;20250;-77
2021/11/15 12:57:18;;;;;;;6.32;5.72;;;14.30;67.40;;;;;;4926881;28;20191;-76
2021/11/15 12:59:52;;;;;;;7.30;6.22;;;14.20;67.60;;;;;;4931042;28;20195;-76